To NAV CANADA Home Page Login to a new session Search on AWWS site Feedback and Comments Disclaimer Vers la page française équivalente Tips FAQ What's new on the site To the Forecasts and Observations / NOTAM section To "File a Flight Plan" website Publications and other links Update of the User's profile FIC Telephone Numbers My Weather Data Folder Route Weather Data Regional Weather Data Local Weather Data To the Forecasts and Observations / NOTAM section
Request Generated 02/23/2017 at 20:46:29 UTC . Weather information available at that time is displayed.

METAR/TAF

BAKER LAKE/NU    

METAR CYBK 232000Z 00000KT 20SM IC SCT120 BKN200 M23/M27 A3031 RMK
AC3CI3 SLP270=
METAR CYBK 231900Z 00000KT 20SM IC SCT120 BKN200 M24/M29 A3032 RMK
AC3CI3 SLP272=
METAR CYBK 231800Z 00000KT 20SM IC SCT120 BKN200 M24/M28 A3033 RMK
AC3CI4 SLP275=

TAF CYBK 231738Z 2318/2406 VRB03KT P6SM IC SCT120
BECMG 2322/2324 28006KT
RMK NXT FCST BY 240000Z=
Your time UTC time
Weather data provided by Environment Canada and NAV CANADA